Terminal Aerodrome Forecast
Issued by NWS Paducah, KY

Home | Current Version | Previous Version | Text Only | Print | Product List | Glossary Off
Versions: 1 2 3 4 5 6 7 8 9 10 11 12 13 14

417
FTUS43 KPAH 232334
TAFEVV
TAF
KEVV 232334Z 2400/2424 04011KT P6SM FEW200
     FM240300 03007KT P6SM SKC
     FM241600 05007KT P6SM BKN040=

USA.gov is the U.S. government's official web portal to all federal, state and local government web resources and services.